• Join FlightAware (Why Join?)
  • Login
  • US Flag 
05:58PM EDT


 

Airport Tracker/Info


-or-


 

Live Flight TrackerFlight Track Log ✈ AVN51 ✈ 19-Oct-2013 ✈ NZAA / AKL - NVVV / VLI

Flight Track Log - Related Links

Times and Time Zones

All times are in EDT time to prevent confusion due to time zone crossing. See the AVN51 flight status page for this flight to view local times or setup timezone preferences in your user account.

Time Position Orientation Groundspeed Altitude Reporting Facility
EDT Latitude Longitude Course Direction KTS MPH feet Rate Location/Type
08:06PM -37.0120 174.7860 247° West 135 155  Level FlightAware
08:06PM -37.0160 174.7700 253° West 157 181 1,020 Level FlightAware
08:06PM -37.0220 174.7510 248° West 161 185 800 1,680 Climbing FlightAware
08:07PM -37.0280 174.7300 250° West 175 201 1,300 1,380 Climbing FlightAware
08:07PM -37.0300 174.7210 254° West 180 207 1,500 1,500 Climbing FlightAware
08:07PM -37.0390 174.6890 251° West 204 235 2,300 1,860 Climbing FlightAware
08:08PM -37.0440 174.6710 251° West 203 234 2,900 2,340 Climbing FlightAware
08:08PM -37.0450 174.6600 263° West 203 234 3,400 2,340 Climbing FlightAware
08:08PM -37.0360 174.6390 298° West 219 252 4,000 1,560 Climbing FlightAware ADS-B
08:08PM -37.0260 174.6280 319° Northwest 238 274 4,200 1,080 Climbing FlightAware ADS-B
08:08PM -37.0180 174.6190 318° Northwest 244 281 4,400 1,080 Climbing FlightAware ADS-B
08:09PM -37.0060 174.6060 319° Northwest 263 303 4,600 1,020 Climbing FlightAware ADS-B
08:09PM -37.0030 174.6020 313° West 265 305 4,700 1,260 Climbing FlightAware ADS-B
08:09PM -36.9940 174.5930 321° Northwest 278 320 4,900 840 Climbing FlightAware ADS-B
08:09PM -36.9760 174.5730 318° Northwest 295 339 5,100 780 Climbing FlightAware ADS-B
08:09PM -36.9710 174.5670 316° Northwest 300 345 5,200 1,200 Climbing FlightAware ADS-B
08:09PM -36.9660 174.5620 321° Northwest 304 350 5,300 960 Climbing FlightAware ADS-B
08:09PM -36.9520 174.5460 318° Northwest 318 366 5,500 1,200 Climbing FlightAware ADS-B
08:10PM -36.9440 174.5370 318° Northwest 319 367 5,700 2,460 Climbing FlightAware ADS-B
08:10PM -36.9370 174.5290 318° Northwest 320 368 6,000 2,160 Climbing FlightAware ADS-B
08:10PM -36.9320 174.5240 321° Northwest 323 372 6,100 960 Climbing FlightAware ADS-B
08:10PM -36.9280 174.5210 329° Northwest 328 377 6,200 1,380 Climbing FlightAware ADS-B
08:10PM -36.9190 174.5150 332° Northwest 331 381 6,400 3,000 Climbing FlightAware ADS-B
08:10PM -36.9060 174.5070 334° Northwest 333 383 6,800 2,460 Climbing FlightAware ADS-B
08:10PM -36.9000 174.5030 332° Northwest 335 386 6,900 1,320 Climbing FlightAware ADS-B
08:10PM -36.8960 174.5000 329° Northwest 336 387 7,000 2,460 Climbing FlightAware ADS-B
08:10PM -36.8810 174.4910 334° Northwest 336 387 7,400 2,760 Climbing FlightAware ADS-B
08:10PM -36.8770 174.4880 329° Northwest 336 387 7,600 3,000 Climbing FlightAware ADS-B
08:11PM -36.8700 174.4840 335° Northwest 336 387 7,800 2,100 Climbing FlightAware ADS-B
08:11PM -36.8580 174.4760 332° Northwest 336 387 8,100 2,400 Climbing FlightAware ADS-B
08:11PM -36.8520 174.4720 332° Northwest 337 388 8,400 2,100 Climbing FlightAware ADS-B
08:11PM -36.8180 174.4500 333° Northwest 346 398 9,100 1,740 Climbing FlightAware ADS-B
08:11PM -36.8120 174.4460 332° Northwest 347 399 9,200 1,080 Climbing FlightAware ADS-B
08:11PM -36.8080 174.4430 329° Northwest 352 405 9,300 2,400 Climbing FlightAware ADS-B
08:12PM -36.7770 174.4230 333° Northwest 354 407 10,200 2,460 Climbing FlightAware ADS-B
08:13PM -36.6860 174.3660 333° Northwest 369 425 12,700 2,520 Climbing FlightAware ADS-B
08:13PM -36.6750 174.3590 333° Northwest 369 425 13,100 4,260 Climbing FlightAware ADS-B
08:13PM -36.6720 174.3570 332° Northwest 368 423 13,200 3,900 Climbing FlightAware ADS-B
08:13PM -36.6440 174.3380 331° Northwest 359 413 14,400 3,840 Climbing FlightAware ADS-B
08:13PM -36.6340 174.3310 331° Northwest 354 407 15,000 2,520 Climbing FlightAware ADS-B
08:13PM -36.6330 174.3300 321° Northwest 350 403 15,000 3,480 Level FlightAware ADS-B
08:13PM -36.6140 174.3190 335° Northwest 352 405 15,700 4,860 Climbing FlightAware ADS-B
08:14PM -36.6100 174.3170 338° Northwest 358 412 15,900 2,820 Climbing FlightAware ADS-B
08:14PM -36.5870 174.3110 348° North 360 414 16,500 2,520 Climbing FlightAware ADS-B
08:14PM -36.5770 174.3080 346° North 363 418 16,700 960 Climbing FlightAware ADS-B
08:14PM -36.5680 174.3040 340° North 369 425 16,700 660 Level FlightAware ADS-B
08:14PM -36.5640 174.3030 349° North 372 428 16,800 1,680 Climbing FlightAware ADS-B
08:15PM -36.4950 174.2770 343° North 394 453 17,900 1,860 Climbing FlightAware ADS-B
08:15PM -36.4850 174.2730 342° North 393 452 18,200 3,000 Climbing FlightAware ADS-B
08:15PM -36.4730 174.2690 345° North 394 453 18,500 2,460 Climbing FlightAware ADS-B
08:15PM -36.4620 174.2650 344° North 396 456 18,700 1,980 Climbing FlightAware ADS-B
08:15PM -36.4540 174.2620 343° North 397 457 18,900 1,980 Climbing FlightAware ADS-B
08:15PM -36.4430 174.2590 348° North 399 459 19,100 1,980 Climbing FlightAware ADS-B
08:15PM -36.4320 174.2550 344° North 401 461 19,300 1,980 Climbing FlightAware ADS-B
08:15PM -36.4210 174.2510 344° North 403 464 19,500 1,980 Climbing FlightAware ADS-B
08:15PM -36.4090 174.2470 345° North 405 466 19,700 1,980 Climbing FlightAware ADS-B
08:16PM -36.3980 174.2430 344° North 406 467 19,900 1,980 Climbing FlightAware ADS-B
08:16PM -36.3890 174.2400 345° North 407 468 20,100 1,980 Climbing FlightAware ADS-B
08:16PM -36.3770 174.2360 345° North 408 470 20,300 1,800 Climbing FlightAware ADS-B
08:16PM -36.3650 174.2320 345° North 409 471 20,500 1,980 Climbing FlightAware ADS-B
08:16PM -36.3550 174.2280 342° North 411 473 20,700 2,160 Climbing FlightAware ADS-B
08:16PM -36.3440 174.2240 344° North 412 474 20,900 1,980 Climbing FlightAware ADS-B
08:16PM -36.3340 174.2210 346° North 413 475 21,100 2,460 Climbing FlightAware ADS-B
08:16PM -36.3220 174.2160 341° North 414 476 21,400 2,460 Climbing FlightAware ADS-B
08:16PM -36.3110 174.2130 348° North 415 478 21,600 1,500 Climbing FlightAware ADS-B
08:16PM -36.3010 174.2090 342° North 416 479 21,700 1,500 Climbing FlightAware ADS-B
08:17PM -36.2900 174.2050 344° North 417 480 21,900 2,400 Climbing FlightAware ADS-B
08:17PM -36.2810 174.2020 345° North 418 481 22,100 2,100 Climbing FlightAware ADS-B
08:17PM -36.2167 174.1833 345° North 418 481 2,040 Descending New Zealand
08:17PM -36.2110 174.1780 345° North 421 484 23,400 157,320 Climbing FlightAware ADS-B
08:17PM -36.2010 174.1750 346° North 422 486 23,600 1,980 Climbing FlightAware ADS-B
08:17PM -36.1900 174.1710 344° North 422 486 23,800 1,980 Climbing FlightAware ADS-B
08:18PM -36.1750 174.1660 345° North 425 489 24,000 1,500 Climbing FlightAware ADS-B
08:18PM -36.1650 174.1620 342° North 425 489 24,100 1,500 Climbing FlightAware ADS-B
08:18PM -36.1530 174.1580 345° North 427 491 24,300 1,800 Climbing FlightAware ADS-B
08:18PM -36.1420 174.1540 344° North 428 493 24,500 1,500 Climbing FlightAware ADS-B
08:18PM -36.1310 174.1500 344° North 429 494 24,600 1,620 Climbing FlightAware ADS-B
08:18PM -36.1190 174.1460 345° North 430 495 24,800 1,500 Climbing FlightAware ADS-B
08:18PM -36.1090 174.1430 346° North 431 496 24,900 1,500 Climbing FlightAware ADS-B
08:18PM -36.0980 174.1390 344° North 433 498 25,100 1,500 Climbing FlightAware ADS-B
08:18PM -36.0850 174.1340 343° North 434 499 25,200 960 Climbing FlightAware ADS-B
08:18PM -36.0740 174.1300 344° North 435 501 25,300 1,620 Climbing FlightAware ADS-B
08:19PM -36.0640 174.1270 346° North 437 503 25,500 1,500 Climbing FlightAware ADS-B
08:19PM -36.0620 174.1260 338° Northwest 438 504 25,500 1,260 Level FlightAware ADS-B
08:19PM -35.9833 174.1000 338° Northwest 444 511 1,320 Descending New Zealand
08:19PM -35.9550 174.0890 338° Northwest 448 516 26,700 33,540 Climbing FlightAware
08:20PM -35.8840 174.0650 345° North 454 522 27,400 1,260 Climbing FlightAware
08:21PM -35.8140 174.0400 344° North 450 518 28,200 1,440 Climbing FlightAware
08:21PM -35.7420 174.0160 344° North 449 517 29,100 1,740 Climbing FlightAware
08:21PM -35.7333 174.0167 344° North 458 527 1,920 Descending New Zealand
08:22PM -35.6610 173.9880 344° North 448 516 30,400 26,520 Climbing FlightAware
08:22PM -35.5910 173.9640 344° North 437 503 31,400 1,500 Climbing FlightAware
08:23PM -35.5230 173.9410 345° North 437 503 32,200 1,260 Climbing FlightAware
08:24PM -35.4420 173.9130 344° North 436 502 33,000 1,140 Climbing FlightAware
08:24PM -35.3820 173.8930 344° North 437 503 33,600 960 Climbing FlightAware
08:24PM -35.3667 173.8833 344° North 445 512 780 Descending New Zealand
08:25PM -35.3110 173.8680 344° North 449 517 34,100 33,480 Climbing FlightAware
08:25PM -35.2333 173.8333 344° North 451 519 840 Descending New Zealand
08:25PM -35.2410 173.8440 344° North 453 521 34,600 58,620 Climbing FlightAware
08:26PM -35.1700 173.8200 345° North 453 521 35,200 1,020 Climbing FlightAware
08:27PM -35.1000 173.7970 345° North 451 519 35,800 660 Climbing FlightAware
08:27PM -35.0290 173.7730 345° North 452 520 36,000 120 Climbing FlightAware
08:28PM -34.9590 173.7500 345° North 451 519 36,000  Level FlightAware
08:28PM -34.8970 173.7290 345° North 452 520 36,000  Level FlightAware
08:28PM -34.8667 173.7167 345° North 452 520  Descending New Zealand
08:29PM -34.8170 173.7020 345° North 451 519 36,000 34,260 Climbing FlightAware
08:29PM -34.7500 173.6667 345° North 452 520  Descending New Zealand
08:30PM -34.7450 173.6770 345° North 451 519 36,000 61,680 Climbing FlightAware
08:30PM -34.6760 173.6540 345° North 451 519 36,000  Level FlightAware
08:31PM -34.6040 173.6300 345° North 451 519 36,000  Level FlightAware
08:31PM -34.5350 173.6070 345° North 452 520 36,000  Level FlightAware
08:32PM -34.4620 173.5820 344° North 452 520 36,000  Level FlightAware
08:32PM -34.3930 173.5600 344° North 453 521 36,000  Level FlightAware
08:33PM -34.3667 173.5500 344° North 452 520  Descending New Zealand
08:33PM -34.3210 173.5360 345° North 453 521 36,000 35,400 Climbing FlightAware
08:34PM -34.2500 173.5167 345° North 453 521  Descending New Zealand
08:34PM -34.2510 173.5130 345° North 454 522 36,000 60,000 Climbing FlightAware
08:34PM -34.1800 173.4890 344° North 447 514 36,000  Level FlightAware
08:35PM -34.1090 173.4660 345° North 448 516 36,000  Level FlightAware
08:35PM -34.0370 173.4420 345° North 448 516 36,000  Level FlightAware
08:36PM -33.9760 173.4220 345° North 448 516 36,000  Level FlightAware
08:36PM -33.9030 173.3980 345° North 448 516 36,000  Level FlightAware
08:37PM -33.8140 173.3670 344° North 454 522 36,000  Level FlightAware
08:38PM -33.7500 173.3333 344° North 452 520  Descending New Zealand
08:38PM -33.7420 173.3390 344° North 453 521 36,000 45,000 Climbing FlightAware
08:38PM -33.6770 173.3130 342° North 453 521 36,000  Level FlightAware
08:39PM -33.6160 173.2900 343° North 453 521 36,000  Level FlightAware
08:40PM -33.5167 173.2500 343° North 437 503  Descending New Zealand
08:40PM -33.5530 173.2650 343° North 453 521 36,000 432,000 Climbing FlightAware
08:41PM -33.3833 173.2000 343° North 447 514 -34,320 Descending New Zealand
08:42PM -33.2833 173.1667 344° North 437 503  Level New Zealand
08:43PM -33.1333 173.1167 344° North 447 514  Level New Zealand
08:44PM -33.0500 173.0833 341° North 437 503  Level New Zealand
08:45PM -32.9000 173.0167 340° North 447 514  Level New Zealand
08:46PM -32.8167 173.0000 350° North 437 503  Level New Zealand
08:48PM -32.5833 172.9167 343° North 437 503  Level New Zealand
08:50PM -32.3500 172.8333 343° North 437 503  Level New Zealand
08:52PM -32.1167 172.7500 343° North 437 503  Level New Zealand
08:54PM -31.8833 172.6667 343° North 437 503  Level New Zealand
08:56PM -31.6500 172.5833 343° North 437 503  Level New Zealand
08:58PM -31.4167 172.5000 343° North 437 503  Level New Zealand
09:00PM -31.1667 172.4167 344° North 437 503  Level New Zealand
09:02PM -30.9333 172.3333 343° North 437 503  Level New Zealand
09:04PM -30.7000 172.2500 343° North 437 503  Level New Zealand
09:06PM -30.4667 172.1667 343° North 437 503  Level New Zealand
09:08PM -30.2333 172.0833 343° North 437 503  Level New Zealand
09:10PM -30.0000 172.0167 346° North 437 503  Level New Zealand
09:12PM -29.7667 171.9333 343° North 437 503  Level New Zealand
09:14PM -29.5333 171.8500 343° North 396 456  Level New Zealand
09:16PM -29.3333 171.7833 344° North 396 456  Level New Zealand
09:18PM -29.1167 171.7167 345° North 396 456  Level New Zealand
09:20PM -28.9000 171.6333 341° North 398 458  Level New Zealand
09:22PM -28.6833 171.5667 345° North 398 458  Level New Zealand
09:24PM -28.4667 171.5000 345° North 398 458  Level New Zealand
09:26PM -28.2667 171.4333 344° North 398 458  Level New Zealand
09:28PM -28.0500 171.3500 341° North 398 458  Level New Zealand
09:30PM -27.8333 171.2833 345° North 398 458  Level New Zealand
09:32PM -27.6167 171.2167 345° North 398 458  Level New Zealand
09:34PM -27.4000 171.1500 345° North 398 458  Level New Zealand
09:36PM -27.2000 171.0833 343° North 398 458  Level New Zealand
09:38PM -26.9833 171.0167 345° North 398 458  Level New Zealand
09:40PM -26.7667 170.9500 345° North 398 458  Level New Zealand
09:42PM -26.5500 170.8833 345° North 398 458  Level New Zealand
09:44PM -26.3500 170.8167 343° North 398 458  Level New Zealand
09:46PM -26.1333 170.7333 341° North 398 458  Level New Zealand
09:48PM -25.9167 170.6667 345° North 398 458  Level New Zealand
09:50PM -25.7577 170.6220 346° North  Level FlightAware Approximate
09:57PM -25.1454 170.4236 344° North  Level FlightAware Approximate
09:58PM -25.0580 170.3952 344° North  Level FlightAware Approximate
09:59PM -24.9706 170.3668 344° North  Level FlightAware Approximate
10:00PM -24.8831 170.3385 344° North  Level FlightAware Approximate
10:01PM -24.7957 170.3103 344° North  Level FlightAware Approximate
10:02PM -24.7082 170.2821 344° North  Level FlightAware Approximate
10:03PM -24.6208 170.2539 344° North  Level FlightAware Approximate
10:04PM -24.5333 170.2257 344° North  Level FlightAware Approximate
10:05PM -24.4459 170.1976 344° North  Level FlightAware Approximate
10:06PM -24.3584 170.1696 344° North  Level FlightAware Approximate
10:07PM -24.2709 170.1416 344° North  Level FlightAware Approximate
10:08PM -24.1835 170.1136 344° North  Level FlightAware Approximate
10:09PM -24.0960 170.0856 344° North  Level FlightAware Approximate
10:10PM -24.0085 170.0577 344° North  Level FlightAware Approximate
10:11PM -23.9210 170.0299 344° North  Level FlightAware Approximate
10:12PM -23.8335 170.0020 344° North  Level FlightAware Approximate
10:13PM -23.7460 169.9742 344° North  Level FlightAware Approximate
10:14PM -23.6585 169.9465 344° North  Level FlightAware Approximate
10:15PM -23.5710 169.9188 344° North  Level FlightAware Approximate
10:16PM -23.4834 169.8911 344° North  Level FlightAware Approximate
10:17PM -23.3959 169.8634 344° North  Level FlightAware Approximate
10:18PM -23.3084 169.8358 344° North  Level FlightAware Approximate
10:19PM -23.2209 169.8082 344° North  Level FlightAware Approximate
10:20PM -23.1333 169.7807 344° North  Level FlightAware Approximate
10:21PM -23.0458 169.7532 344° North  Level FlightAware Approximate
10:22PM -22.9582 169.7258 344° North  Level FlightAware Approximate
10:23PM -22.8707 169.6983 344° North  Level FlightAware Approximate
10:24PM -22.7831 169.6709 344° North  Level FlightAware Approximate
10:25PM -22.6956 169.6436 344° North  Level FlightAware Approximate
10:26PM -22.6080 169.6163 344° North  Level FlightAware Approximate
10:27PM -22.5205 169.5890 344° North  Level FlightAware Approximate
10:28PM -22.4329 169.5617 344° North  Level FlightAware Approximate
10:29PM -22.3453 169.5345 344° North  Level FlightAware Approximate
10:30PM -22.2577 169.5073 344° North  Level FlightAware Approximate
10:31PM -22.1701 169.4801 344° North  Level FlightAware Approximate
10:32PM -22.0825 169.4530 344° North  Level FlightAware Approximate
10:33PM -21.9949 169.4259 344° North  Level FlightAware Approximate
10:34PM -21.9073 169.3989 344° North  Level FlightAware Approximate
10:35PM -21.8197 169.3719 344° North  Level FlightAware Approximate
10:36PM -21.7321 169.3449 344° North  Level FlightAware Approximate
10:37PM -21.6445 169.3179 344° North  Level FlightAware Approximate
10:38PM -21.5569 169.2910 344° North  Level FlightAware Approximate
10:39PM -21.4693 169.2641 344° North  Level FlightAware Approximate
10:40PM -21.3817 169.2373 344° North  Level FlightAware Approximate
10:41PM -21.2940 169.2105 344° North  Level FlightAware Approximate
10:42PM -21.2064 169.1837 344° North  Level FlightAware Approximate
10:43PM -21.1187 169.1569 344° North  Level FlightAware Approximate
10:44PM -21.0311 169.1302 344° North  Level FlightAware Approximate
10:45PM -20.9435 169.1035 344° North  Level FlightAware Approximate
10:46PM -20.8558 169.0768 344° North  Level FlightAware Approximate
10:47PM -20.7682 169.0502 344° North  Level FlightAware Approximate
10:48PM -20.6805 169.0236 344° North  Level FlightAware Approximate
10:49PM -20.5928 168.9970 344° North  Level FlightAware Approximate
10:50PM -20.5052 168.9705 344° North  Level FlightAware Approximate
10:51PM -20.4175 168.9440 344° North  Level FlightAware Approximate
10:52PM -20.3298 168.9175 344° North  Level FlightAware Approximate
10:53PM -20.2421 168.8910 344° North  Level FlightAware Approximate
10:54PM -20.1544 168.8646 344° North  Level FlightAware Approximate
10:55PM -20.0668 168.8382 344° North  Level FlightAware Approximate
10:56PM -19.9791 168.8119 344° North  Level FlightAware Approximate
10:57PM -19.8914 168.7855 344° North  Level FlightAware Approximate
10:58PM -19.8037 168.7592 344° North  Level FlightAware Approximate
10:59PM -19.7160 168.7329 344° North  Level FlightAware Approximate
11:00PM -19.6283 168.7067 344° North  Level FlightAware Approximate
11:01PM -19.5406 168.6805 344° North  Level FlightAware Approximate
11:02PM -19.4528 168.6543 344° North  Level FlightAware Approximate
11:03PM -19.3651 168.6281 344° North  Level FlightAware Approximate
11:04PM -19.2766 168.6053 348° North  Level FlightAware Approximate
11:05PM -19.1875 168.5852 348° North  Level FlightAware Approximate
11:06PM -19.0984 168.5651 348° North  Level FlightAware Approximate
11:07PM -19.0093 168.5450 348° North  Level FlightAware Approximate
11:08PM -18.9202 168.5249 348° North  Level FlightAware Approximate
11:09PM -18.8310 168.5049 348° North  Level FlightAware Approximate
11:10PM -18.7419 168.4849 348° North  Level FlightAware Approximate
11:11PM -18.6528 168.4649 348° North  Level FlightAware Approximate
11:12PM -18.5636 168.4449 348° North  Level FlightAware Approximate
11:13PM -18.4745 168.4249 348° North  Level FlightAware Approximate
11:14PM -18.3854 168.4050 348° North  Level FlightAware Approximate
11:15PM -18.2962 168.3851 348° North  Level FlightAware Approximate
11:16PM -18.2071 168.3652 348° North  Level FlightAware Approximate
11:17PM -18.1180 168.3453 348° North  Level FlightAware Approximate
11:18PM -18.0288 168.3254 348° North  Level FlightAware Approximate
11:19PM -17.9397 168.3056 348° North  Level FlightAware Approximate
11:20PM -17.8505 168.2858 348° North  Level FlightAware Approximate
11:21PM -17.7614 168.2659 348° North  Level FlightAware Approximate
11:22PM -17.6993 168.3198 348° North  Level Estimated
11:23PM -17.6993 168.3198 348° North  Level Estimated
11:24PM -17.6993 168.3198 348° North  Level Estimated
11:25PM -17.6993 168.3198 348° North  Level Estimated
11:26PM -17.6993 168.3198 348° North  Level Estimated
11:27PM -17.6993 168.3198 348° North  Level Estimated